Portada
METAR-TAF:

METAR-TAF

Aeroports :

Tsushima, Japó

latitud: 34-17N, longitud: 129-20E, altitud: 63 m

Observació

L'informe es va fer fa 16 minuts, a les 04:00 UTC
Vent 4 kt del Nord-Oest, variant entre Sud-Oest i Nord/Nord-Est
Temperatura 21°C
Humitat 60%
Pressió 1019 hPa
Visibilitat 10 km o més
Escasses núvols a una alçada de 3000 ft
Cel ennuvolat

METAR: RJDT 270400Z 31004KT 230V030 9999 FEW030 BKN/// 21/13 Q1019

Hora: 13:16 (04:16 UTC)


TAF: manca

Observacions i pronòstics meteorològics de més de 4000 aeroports (METAR i TAF).

Les estacions disponibles són els punts grocs i vermells al mapa.

Posi el ratolí al punt desitjat per veure el nom de l'estació.

Feu clic per veure les observacions i els pronòstics meteorològics.

Per canviar el mapa: feu clic els botons verds amb una creu de color negre per apropar; al botó verd amb un guió per allunyar la imatge; o en les fletxes verdes per a mapes adjacents.


METAR-TAF: